Time;durP1;ratioP1;P1;durP2;ratioP2;P2;SDS_P1;SDS_P2;PMS_P1;PMS_P2;Temp;Humidity;BMP_temperature;BMP_pressure;BME280_temperature;BME280_humidity;BME280_pressure;Samples;Min_cycle;Max_cycle;Signal;HPM_P1;HPM_P2
2021/12/10 00:01:57;;;;;;;16.15;8.57;;;;;;;1.13;100.00;99101.50;5074610;28;20120;-74
2021/12/10 00:04:29;;;;;;;16.35;9.23;;;;;;;1.14;100.00;99107.59;5074049;28;20477;-74
2021/12/10 00:07:03;;;;;;;14.60;8.50;;;;;;;1.14;100.00;99108.44;5074730;28;20051;-73
2021/12/10 00:09:34;;;;;;;15.85;8.55;;;;;;;1.25;100.00;99088.78;5074206;28;20090;-74
2021/12/10 00:12:08;;;;;;;17.33;8.77;;;;;;;1.29;100.00;99080.72;5074112;28;20561;-75
2021/12/10 00:14:37;;;;;;;18.00;8.95;;;;;;;1.27;100.00;99113.22;5073022;28;20059;-75
2021/12/10 00:17:08;;;;;;;16.80;9.10;;;;;;;1.22;100.00;99107.28;5074250;28;20067;-76
2021/12/10 00:19:43;;;;;;;16.90;8.60;;;;;;;1.17;100.00;99111.91;5073724;28;20119;-76
2021/12/10 00:22:16;;;;;;;15.02;8.82;;;;;;;1.17;100.00;99104.88;5074280;28;20036;-75
2021/12/10 00:24:47;;;;;;;15.73;8.48;;;;;;;1.27;100.00;99113.22;5072589;28;20053;-76
2021/12/10 00:27:26;;;;;;;17.25;8.73;;;;;;;1.31;100.00;99099.03;5073775;28;20044;-76
2021/12/10 00:30:03;;;;;;;14.30;7.78;;;;;;;1.21;100.00;99102.97;5074302;28;20086;-76
2021/12/10 00:32:35;;;;;;;17.38;9.30;;;;;;;1.14;100.00;99097.94;5073687;28;20044;-76
2021/12/10 00:35:08;;;;;;;18.85;9.45;;;;;;;1.13;100.00;99093.63;5073727;28;20048;-75
2021/12/10 00:37:38;;;;;;;19.95;10.25;;;;;;;1.12;100.00;99112.91;5073395;28;20775;-75
2021/12/10 00:40:10;;;;;;;17.45;8.95;;;;;;;1.12;100.00;99115.53;5074125;28;20091;-77
2021/12/10 00:42:39;;;;;;;20.20;10.20;;;;;;;1.02;100.00;99124.69;5073584;28;20075;-76
2021/12/10 00:45:11;;;;;;;19.30;10.05;;;;;;;0.95;100.00;99131.09;5073532;28;20048;-76
2021/12/10 00:47:41;;;;;;;18.75;8.35;;;;;;;0.95;100.00;99128.47;5073564;28;20044;-77
2021/12/10 00:50:14;;;;;;;22.35;10.45;;;;;;;0.85;100.00;99127.13;5073982;28;20045;-77
2021/12/10 00:52:44;;;;;;;24.30;11.88;;;;;;;0.84;100.00;99121.03;5073261;28;20037;-77
2021/12/10 00:55:14;;;;;;;21.88;9.23;;;;;;;0.89;100.00;99112.97;5073896;28;20497;-76
2021/12/10 00:57:45;;;;;;;25.27;12.38;;;;;;;0.78;100.00;99110.78;5073543;28;20036;-77
2021/12/10 01:00:17;;;;;;;25.20;11.88;;;;;;;0.74;100.00;99118.81;5072915;28;20494;-77
2021/12/10 01:02:46;;;;;;;28.63;13.20;;;;;;;0.61;100.00;99099.22;5073711;28;20051;-77
2021/12/10 01:05:16;;;;;;;25.95;11.93;;;;;;;0.72;100.00;99099.66;5073496;28;20040;-77
2021/12/10 01:07:46;;;;;;;25.40;11.18;;;;;;;0.73;100.00;99096.09;5073764;28;20072;-74
2021/12/10 01:10:20;;;;;;;26.63;13.00;;;;;;;0.70;100.00;99093.59;5073222;28;20510;-73
2021/12/10 01:12:51;;;;;;;26.00;12.25;;;;;;;0.65;100.00;99092.91;5073487;28;20048;-73
2021/12/10 01:15:44;;;;;;;26.85;12.18;;;;;;;0.64;100.00;99096.47;5073044;28;20102;-75
2021/12/10 01:24:15;;;;;;;25.27;12.43;;;;;;;0.80;100.00;99108.09;5073018;28;20044;-74
2021/12/10 01:26:58;;;;;;;29.98;13.18;;;;;;;0.84;100.00;99109.66;5072104;28;20063;-74
2021/12/10 01:29:33;;;;;;;27.13;13.43;;;;;;;0.91;100.00;99108.53;5072683;28;20047;-75
2021/12/10 01:32:05;;;;;;;22.67;10.73;;;;;;;0.95;100.00;99112.72;5072986;28;20106;-74
2021/12/10 01:34:34;;;;;;;24.92;12.00;;;;;;;0.93;100.00;99122.44;5071909;28;20049;-72
2021/12/10 01:37:04;;;;;;;25.27;12.07;;;;;;;0.85;100.00;99116.63;5072862;28;20382;-74
2021/12/10 01:39:39;;;;;;;17.80;8.68;;;;;;;0.76;100.00;99116.97;5072363;28;20048;-73
2021/12/10 01:42:17;;;;;;;24.75;12.02;;;;;;;0.76;100.00;99119.59;5073122;28;20389;-73
2021/12/10 01:44:51;;;;;;;23.95;11.80;;;;;;;0.75;100.00;99123.13;5071748;28;20519;-74
2021/12/10 01:47:25;;;;;;;27.77;13.93;;;;;;;0.74;100.00;99118.81;5072759;28;20041;-76
2021/12/10 01:49:55;;;;;;;28.95;14.02;;;;;;;0.70;100.00;99127.72;5072699;28;20056;-75
2021/12/10 01:52:25;;;;;;;26.00;12.82;;;;;;;0.73;100.00;99130.22;5072421;28;20047;-76
2021/12/10 01:54:58;;;;;;;26.58;12.82;;;;;;;0.79;100.00;99122.97;5072916;28;20056;-76
2021/12/10 01:57:30;;;;;;;;;;;;;;;0.77;100.00;99118.69;5073074;28;20394;-76
2021/12/10 01:59:58;;;;;;;25.88;12.48;;;;;;;0.70;100.00;99112.84;5072685;28;19921;-72
2021/12/10 02:02:30;;;;;;;26.73;12.65;;;;;;;0.64;100.00;99118.31;5072531;28;20047;-73
2021/12/10 02:04:58;;;;;;;27.73;12.98;;;;;;;0.53;100.00;99116.09;5072962;28;20098;-71
2021/12/10 02:07:28;;;;;;;27.23;13.15;;;;;;;0.45;100.00;99117.28;5072471;28;20129;-73
2021/12/10 02:09:58;;;;;;;28.15;13.60;;;;;;;0.36;100.00;99107.13;5072471;28;20116;-71
2021/12/10 02:12:27;;;;;;;28.13;12.70;;;;;;;0.43;100.00;99108.63;5073327;28;20056;-73
2021/12/10 02:15:01;;;;;;;26.17;11.07;;;;;;;0.45;100.00;99118.13;5074921;28;20048;-71
2021/12/10 02:17:36;;;;;;;24.92;12.70;;;;;;;0.44;100.00;99116.44;5076607;28;20056;-73
2021/12/10 02:20:09;;;;;;;23.80;11.30;;;;;;;0.51;100.00;99114.44;5076341;28;20548;-72
2021/12/10 02:22:40;;;;;;;23.95;12.50;;;;;;;0.53;100.00;99121.34;5076327;28;20269;-72
2021/12/10 02:25:09;;;;;;;25.33;13.02;;;;;;;0.59;100.00;99115.00;5076549;28;20047;-74
2021/12/10 02:27:38;;;;;;;22.40;11.68;;;;;;;0.67;100.00;99109.44;5076104;28;20037;-75
2021/12/10 02:30:12;;;;;;;26.02;13.18;;;;;;;0.61;100.00;99113.19;5076101;28;20049;-75
2021/12/10 02:32:41;;;;;;;25.60;12.70;;;;;;;0.65;100.00;99113.91;5075873;28;20094;-75
2021/12/10 02:35:12;;;;;;;26.55;12.48;;;;;;;0.74;100.00;99118.81;5075806;28;20478;-75
2021/12/10 02:37:45;;;;;;;27.15;12.75;;;;;;;0.75;100.00;99113.50;5075906;28;20044;-74
2021/12/10 02:40:16;;;;;;;23.25;11.30;;;;;;;0.83;100.00;99129.81;5076485;28;20114;-74
2021/12/10 02:42:46;;;;;;;22.88;11.70;;;;;;;0.85;100.00;99135.00;5075919;28;20045;-77
2021/12/10 02:45:16;;;;;;;24.52;11.50;;;;;;;0.95;100.00;99133.72;5076003;28;20074;-74
2021/12/10 02:47:46;;;;;;;21.70;10.95;;;;;;;0.92;100.00;99135.63;5075840;28;20826;-76
2021/12/10 02:50:18;;;;;;;22.33;11.18;;;;;;;1.00;100.00;99136.19;5076063;28;20083;-76
2021/12/10 02:52:48;;;;;;;20.65;10.75;;;;;;;0.89;100.00;99134.00;5075697;28;20425;-75
2021/12/10 02:55:17;;;;;;;17.10;9.10;;;;;;;1.06;100.00;99131.56;5076506;28;20044;-76
2021/12/10 02:57:48;;;;;;;10.40;5.28;;;;;;;1.08;100.00;99128.88;5075743;28;20101;-72
2021/12/10 03:00:22;;;;;;;15.90;7.75;;;;;;;1.04;100.00;99116.75;5075613;28;20486;-72
2021/12/10 03:02:50;;;;;;;15.55;7.70;;;;;;;1.08;100.00;99113.97;5075646;28;20393;-72
2021/12/10 03:05:20;;;;;;;15.52;8.23;;;;;;;1.08;100.00;99103.47;5075708;28;20052;-73
2021/12/10 03:07:51;;;;;;;14.27;7.80;;;;;;;1.08;100.00;99107.88;5075458;28;20040;-72
2021/12/10 03:10:22;;;;;;;14.48;7.57;;;;;;;1.02;100.00;99111.56;5075686;28;20049;-77
2021/12/10 03:12:51;;;;;;;12.27;6.78;;;;;;;1.03;100.00;99121.16;5075153;28;20044;-78
2021/12/10 03:15:25;;;;;;;13.93;7.18;;;;;;;0.97;100.00;99115.31;5075174;28;20067;-76
2021/12/10 03:17:53;;;;;;;10.02;5.45;;;;;;;1.07;100.00;99120.13;5075554;28;20067;-77
2021/12/10 03:20:28;;;;;;;10.20;5.85;;;;;;;1.09;100.00;99127.97;5075160;28;20036;-76
2021/12/10 03:23:01;;;;;;;11.73;6.07;;;;;;;1.10;100.00;99129.66;5075046;28;20041;-76
2021/12/10 03:25:29;;;;;;;13.07;7.47;;;;;;;1.17;100.00;99135.53;5075165;28;20094;-77
2021/12/10 03:27:58;;;;;;;12.75;6.75;;;;;;;1.15;100.00;99136.44;5075398;28;20037;-75
2021/12/10 03:30:31;;;;;;;14.07;7.53;;;;;;;1.10;100.00;99148.91;5075373;28;20036;-75
2021/12/10 03:33:00;;;;;;;16.27;8.45;;;;;;;1.07;100.00;99150.81;5075321;28;20075;-77
2021/12/10 03:35:31;;;;;;;14.68;8.27;;;;;;;1.08;100.00;99156.00;5074472;28;20405;-77
2021/12/10 03:38:04;;;;;;;15.02;7.88;;;;;;;1.10;100.00;99155.94;5074892;28;20044;-75
2021/12/10 03:40:32;;;;;;;15.48;8.02;;;;;;;1.22;100.00;99154.56;5074572;28;20082;-75
2021/12/10 03:43:01;;;;;;;14.05;7.68;;;;;;;1.25;100.00;99146.56;5075159;28;20045;-74
2021/12/10 03:45:32;;;;;;;14.32;8.10;;;;;;;1.23;100.00;99143.16;5074350;28;20036;-77
2021/12/10 03:48:03;;;;;;;15.85;9.07;;;;;;;1.05;100.00;99153.47;5075231;28;20068;-74
2021/12/10 03:50:33;;;;;;;17.88;9.55;;;;;;;1.02;100.00;99150.97;5074817;28;20044;-74
2021/12/10 03:53:03;;;;;;;18.77;9.93;;;;;;;1.07;100.00;99146.41;5074940;28;20045;-73
2021/12/10 03:55:31;;;;;;;15.75;8.90;;;;;;;1.23;100.00;99143.16;5073063;28;20076;-74
2021/12/10 03:58:00;;;;;;;17.10;9.10;;;;;;;1.14;100.00;99142.59;5074717;28;20051;-74
2021/12/10 04:00:34;;;;;;;17.27;9.10;;;;;;;1.13;100.00;99138.25;5073625;28;20083;-74
2021/12/10 04:03:04;;;;;;;17.33;9.00;;;;;;;1.18;100.00;99139.88;5074799;28;20116;-74
2021/12/10 04:05:32;;;;;;;16.95;9.55;;;;;;;1.14;100.00;99145.22;5073924;28;20395;-74
2021/12/10 04:08:03;;;;;;;16.30;9.13;;;;;;;1.22;100.00;99151.97;5074305;28;20049;-72
2021/12/10 04:10:31;;;;;;;16.88;9.23;;;;;;;1.15;100.00;99152.19;5074222;28;20044;-73
2021/12/10 04:13:00;;;;;;;17.13;9.15;;;;;;;1.09;100.00;99152.44;5074109;28;20044;-72
2021/12/10 04:15:28;;;;;;;16.98;9.32;;;;;;;1.13;100.00;99164.53;5074429;28;20055;-71
2021/12/10 04:17:59;;;;;;;17.48;8.98;;;;;;;1.02;100.00;99153.59;5074328;28;20079;-73
2021/12/10 04:20:29;;;;;;;15.60;8.50;;;;;;;0.96;100.00;99156.44;5073970;28;20102;-72
2021/12/10 04:23:05;;;;;;;14.52;8.98;;;;;;;0.86;100.00;99155.09;5074056;28;20482;-72
2021/12/10 04:25:33;;;;;;;13.60;8.02;;;;;;;0.99;100.00;99160.75;5073953;28;20052;-73
2021/12/10 04:28:07;;;;;;;14.65;8.23;;;;;;;0.91;100.00;99152.31;5074168;28;20048;-72
2021/12/10 04:30:40;;;;;;;15.50;8.60;;;;;;;1.02;100.00;99168.50;5073841;28;20040;-73
2021/12/10 04:33:09;;;;;;;;;;;;;;;0.92;100.00;99178.50;5074529;28;20469;-74
2021/12/10 04:35:38;;;;;;;14.50;8.00;;;;;;;0.90;100.00;99168.97;5072948;28;19920;-74
2021/12/10 04:38:07;;;;;;;15.43;8.90;;;;;;;0.88;100.00;99178.69;5073464;28;20476;-74
2021/12/10 04:40:37;;;;;;;18.30;9.88;;;;;;;0.76;100.00;99174.72;5073878;28;20083;-75
2021/12/10 04:43:05;;;;;;;15.70;8.95;;;;;;;0.75;100.00;99178.25;5073682;28;20127;-74
2021/12/10 04:45:34;;;;;;;18.02;9.63;;;;;;;0.68;100.00;99184.69;5073480;28;20045;-75
2021/12/10 04:48:02;;;;;;;16.50;9.55;;;;;;;0.63;100.00;99190.06;5073799;28;20040;-74
2021/12/10 04:50:31;;;;;;;17.08;10.02;;;;;;;0.62;100.00;99203.25;5073827;28;20489;-73
2021/12/10 04:53:00;;;;;;;20.48;10.35;;;;;;;0.59;100.00;99209.47;5072394;28;20049;-71
2021/12/10 04:55:30;;;;;;;17.55;10.48;;;;;;;0.65;100.00;99208.38;5073483;28;20050;-71
2021/12/10 04:57:58;;;;;;;21.45;11.48;;;;;;;0.65;100.00;99208.38;5073408;28;20040;-71
2021/12/10 05:00:29;;;;;;;17.17;9.77;;;;;;;0.56;100.00;99214.81;5073443;28;20033;-72
2021/12/10 05:03:00;;;;;;;20.48;11.57;;;;;;;0.43;100.00;99213.56;5073313;28;20482;-72
2021/12/10 05:05:29;;;;;;;20.70;11.80;;;;;;;0.31;100.00;99217.47;5072248;28;20486;-72
2021/12/10 05:07:57;;;;;;;20.35;11.48;;;;;;;0.33;100.00;99223.53;5073126;28;20043;-72
2021/12/10 05:10:26;;;;;;;21.95;11.20;;;;;;;0.41;100.00;99226.75;5073356;28;20036;-72
2021/12/10 05:12:56;;;;;;;19.58;11.35;;;;;;;0.46;100.00;99227.41;5073119;28;20118;-72
2021/12/10 05:15:29;;;;;;;21.73;11.02;;;;;;;0.62;100.00;99226.88;5073435;28;20048;-73
2021/12/10 05:17:59;;;;;;;18.98;11.30;;;;;;;0.61;100.00;99206.81;5072999;28;20040;-74
2021/12/10 05:20:32;;;;;;;19.08;10.82;;;;;;;0.52;100.00;99214.09;5072906;28;20057;-73
2021/12/10 05:23:00;;;;;;;22.38;12.77;;;;;;;0.43;100.00;99209.16;5073421;28;20040;-74
2021/12/10 05:25:29;;;;;;;20.27;12.05;;;;;;;0.46;100.00;99216.91;5073098;28;20040;-75
2021/12/10 05:28:00;;;;;;;22.25;12.48;;;;;;;0.37;100.00;99219.00;5071374;28;20122;-76
2021/12/10 05:30:31;;;;;;;19.17;11.45;;;;;;;0.45;100.00;99225.72;5073387;28;20470;-74
2021/12/10 05:33:01;;;;;;;22.48;13.02;;;;;;;0.51;100.00;99219.41;5072833;28;20082;-70
2021/12/10 05:35:30;;;;;;;21.30;11.93;;;;;;;0.40;100.00;99209.28;5071655;28;20044;-70
2021/12/10 05:37:58;;;;;;;22.65;12.73;;;;;;;0.27;100.00;99207.97;5072409;28;20040;-70
2021/12/10 05:40:27;;;;;;;24.25;13.57;;;;;;;0.18;100.00;99198.66;5072965;28;20102;-73
2021/12/10 05:42:55;;;;;;;24.67;13.77;;;;;;;0.16;100.00;99215.38;5072166;28;20051;-71
2021/12/10 05:45:28;;;;;;;25.27;13.40;;;;;;;0.19;100.00;99204.78;5074072;28;20406;-72
2021/12/10 05:47:56;;;;;;;24.13;12.63;;;;;;;0.13;100.00;99192.75;5079454;28;20044;-70
2021/12/10 05:50:26;;;;;;;25.25;13.85;;;;;;;0.12;100.00;99192.81;5079667;28;20045;-72
2021/12/10 05:52:55;;;;;;;26.50;13.73;;;;;;;0.17;100.00;99185.63;5079308;28;20435;-72
2021/12/10 05:55:24;;;;;;;26.88;14.57;;;;;;;0.16;100.00;99190.00;5079337;28;20036;-72
2021/12/10 05:57:53;;;;;;;25.95;13.95;;;;;;;0.13;100.00;99184.03;5078792;28;20056;-72
2021/12/10 06:00:25;;;;;;;28.33;15.15;;;;;;;0.16;100.00;99183.91;5079718;28;20040;-71
2021/12/10 06:02:55;;;;;;;27.63;14.82;;;;;;;0.16;100.00;99181.28;5078715;28;20086;-71
2021/12/10 06:05:24;;;;;;;28.17;14.80;;;;;;;0.16;100.00;99170.78;5079376;28;20071;-74
2021/12/10 06:07:52;;;;;;;27.70;15.85;;;;;;;0.14;100.00;99170.84;5076907;28;20486;-74
2021/12/10 06:10:23;;;;;;;28.85;15.50;;;;;;;0.14;100.00;99173.47;5079236;28;20066;-73
2021/12/10 06:12:52;;;;;;;28.40;15.82;;;;;;;0.10;100.00;99184.13;5079288;28;20032;-75
2021/12/10 06:15:23;;;;;;;29.85;15.38;;;;;;;0.13;100.00;99178.78;5079392;28;20075;-73
2021/12/10 06:17:51;;;;;;;27.83;14.73;;;;;;;0.13;100.00;99184.88;5079085;28;20040;-74
2021/12/10 06:20:24;;;;;;;28.73;15.25;;;;;;;0.32;100.00;99177.22;5078891;28;20037;-71
2021/12/10 06:22:53;;;;;;;26.52;15.07;;;;;;;0.45;100.00;99167.97;5079261;28;20355;-71
2021/12/10 06:25:22;;;;;;;28.42;15.55;;;;;;;0.42;100.00;99170.72;5079280;28;20125;-70
2021/12/10 06:27:50;;;;;;;29.10;15.27;;;;;;;0.39;100.00;99173.47;5079067;28;20040;-70
2021/12/10 06:30:22;;;;;;;31.60;16.48;;;;;;;0.40;100.00;99166.47;5079498;28;20045;-70
2021/12/10 06:32:54;;;;;;;29.70;15.48;;;;;;;0.48;100.00;99170.53;5079008;28;20044;-71
2021/12/10 06:35:26;;;;;;;30.35;15.80;;;;;;;0.52;100.00;99179.97;5078187;28;20052;-70
2021/12/10 06:37:54;;;;;;;31.88;16.83;;;;;;;0.53;100.00;99175.59;5079048;28;20071;-71
2021/12/10 06:40:29;;;;;;;30.58;15.45;;;;;;;0.52;100.00;99173.88;5079125;28;20032;-74
2021/12/10 06:42:58;;;;;;;31.77;17.33;;;;;;;0.54;100.00;99172.03;5078997;28;20059;-73
2021/12/10 06:45:28;;;;;;;29.50;17.27;;;;;;;0.53;100.00;99181.69;5078933;28;20539;-73
2021/12/10 06:47:58;;;;;;;29.33;15.85;;;;;;;0.53;100.00;99176.44;5079229;28;20086;-71
2021/12/10 06:50:32;;;;;;;30.77;16.52;;;;;;;0.60;100.00;99173.59;5079505;28;20040;-73
2021/12/10 06:53:01;;;;;;;30.15;15.80;;;;;;;0.72;100.00;99178.38;5078978;28;20060;-73
2021/12/10 06:55:31;;;;;;;29.67;15.25;;;;;;;0.81;100.00;99188.53;5078849;28;20130;-72
2021/12/10 06:57:59;;;;;;;31.73;16.35;;;;;;;0.86;100.00;99181.34;5076123;28;20119;-73
2021/12/10 07:00:31;;;;;;;31.58;16.88;;;;;;;0.79;100.00;99179.88;5075995;28;20064;-72
2021/12/10 07:03:00;;;;;;;33.42;17.52;;;;;;;0.86;100.00;99173.47;5075448;28;20123;-73
2021/12/10 07:05:30;;;;;;;35.00;18.35;;;;;;;0.82;100.00;99171.88;5075915;28;20445;-73
2021/12/10 07:07:59;;;;;;;32.38;17.55;;;;;;;0.79;100.00;99174.63;5075394;28;20044;-73
2021/12/10 07:10:27;;;;;;;37.22;18.63;;;;;;;0.89;100.00;99185.63;5074293;28;20050;-72
2021/12/10 07:12:56;;;;;;;36.35;18.15;;;;;;;0.79;100.00;99179.88;5075449;28;20119;-73
2021/12/10 07:15:25;;;;;;;36.95;18.33;;;;;;;0.76;100.00;99182.59;5075279;28;20492;-72
2021/12/10 07:17:53;;;;;;;42.35;19.77;;;;;;;0.81;100.00;99184.16;5075424;28;20047;-74
2021/12/10 07:20:25;;;;;;;35.55;17.67;;;;;;;0.92;100.00;99186.38;5075342;28;20044;-74
2021/12/10 07:22:55;;;;;;;36.58;18.48;;;;;;;0.89;100.00;99173.38;5075408;28;20135;-71
2021/12/10 07:25:24;;;;;;;37.20;18.80;;;;;;;0.96;100.00;99181.84;5075605;28;20040;-73
2021/12/10 07:27:53;;;;;;;37.00;18.65;;;;;;;0.89;100.00;99178.63;5075374;28;20040;-73
2021/12/10 07:30:25;;;;;;;40.50;20.42;;;;;;;0.93;100.00;99180.19;5075054;28;20416;-73
2021/12/10 07:32:54;;;;;;;40.73;19.67;;;;;;;0.91;100.00;99174.16;5075217;28;20045;-71
2021/12/10 07:35:22;;;;;;;38.88;19.13;;;;;;;0.78;100.00;99178.16;5075237;28;20277;-71
2021/12/10 07:37:52;;;;;;;37.58;20.75;;;;;;;0.79;100.00;99174.63;5074733;28;20462;-71
2021/12/10 07:40:28;;;;;;;42.58;21.05;;;;;;;0.89;100.00;99170.75;5074794;28;20378;-73
2021/12/10 07:42:56;;;;;;;38.97;20.63;;;;;;;1.24;100.00;99161.47;5074757;28;20106;-72
2021/12/10 07:45:26;;;;;;;40.42;20.45;;;;;;;1.18;100.00;99163.50;5074662;28;20043;-72
2021/12/10 07:47:55;;;;;;;39.35;21.30;;;;;;;1.08;100.00;99161.25;5074215;28;20556;-72
2021/12/10 07:50:32;;;;;;;46.83;21.58;;;;;;;1.04;100.00;99154.38;5075256;28;20469;-73
2021/12/10 07:53:05;;;;;;;40.55;21.17;;;;;;;1.12;100.00;99149.69;5074774;28;20102;-72
2021/12/10 07:55:37;;;;;;;42.22;21.75;;;;;;;1.20;100.00;99152.03;5075447;28;20040;-71
2021/12/10 07:58:07;;;;;;;41.95;21.70;;;;;;;1.24;100.00;99150.97;5074648;28;20044;-72
2021/12/10 08:00:40;;;;;;;46.33;23.33;;;;;;;1.36;100.00;99155.75;5076784;28;20041;-70
2021/12/10 08:03:09;;;;;;;42.70;21.35;;;;;;;1.49;100.00;99155.25;5074564;28;20048;-70
2021/12/10 08:05:39;;;;;;;43.00;21.67;;;;;;;1.64;100.00;99157.25;5074680;28;20078;-71
2021/12/10 08:08:09;;;;;;;42.63;20.83;;;;;;;1.66;100.00;99153.66;5074807;28;20403;-71
2021/12/10 08:10:40;;;;;;;42.63;21.15;;;;;;;1.77;100.00;99154.97;5073330;28;20040;-69
2021/12/10 08:13:10;;;;;;;46.40;21.27;;;;;;;1.77;100.00;99160.22;5074609;28;20110;-71
2021/12/10 08:15:38;;;;;;;42.22;21.35;;;;;;;1.71;100.00;99156.06;5074755;28;20037;-71
2021/12/10 08:18:08;;;;;;;42.92;20.85;;;;;;;1.80;100.00;99154.84;5073706;28;20127;-72
2021/12/10 08:20:37;;;;;;;48.67;22.30;;;;;;;1.69;100.00;99150.88;5074105;28;20482;-71
2021/12/10 08:23:06;;;;;;;45.13;22.75;;;;;;;1.73;100.00;99155.09;5074038;28;20048;-71
2021/12/10 08:25:36;;;;;;;47.42;22.10;;;;;;;1.55;100.00;99165.53;5073950;28;20047;-71
2021/12/10 08:28:06;;;;;;;45.60;22.48;;;;;;;1.65;100.00;99167.72;5073997;28;20044;-71
2021/12/10 08:30:37;;;;;;;43.10;21.25;;;;;;;1.62;100.00;99173.06;5074346;28;20037;-71
2021/12/10 08:33:11;;;;;;;43.67;21.67;;;;;;;1.80;100.00;99160.94;5073528;28;20401;-71
2021/12/10 08:35:44;;;;;;;44.65;21.50;;;;;;;1.73;100.00;99149.81;5073891;28;20502;-71
2021/12/10 08:38:13;;;;;;;45.08;21.13;;;;;;;1.87;100.00;99156.28;5073517;28;20389;-72
2021/12/10 08:40:46;;;;;;;45.90;22.15;;;;;;;1.88;100.00;99152.75;5074100;28;20041;-71
2021/12/10 08:43:16;;;;;;;42.83;21.63;;;;;;;1.69;100.00;99157.91;5073783;28;20075;-72
2021/12/10 08:45:45;;;;;;;48.15;21.77;;;;;;;1.78;100.00;99154.91;5074021;28;20500;-71
2021/12/10 08:48:14;;;;;;;39.40;20.02;;;;;;;1.87;100.00;99145.78;5073620;28;20404;-72
2021/12/10 08:50:43;;;;;;;42.22;20.10;;;;;;;1.72;100.00;99147.25;5074016;28;20070;-70
2021/12/10 08:53:13;;;;;;;41.30;20.30;;;;;;;1.80;100.00;99142.53;5073231;28;20400;-72
2021/12/10 08:55:44;;;;;;;40.78;20.50;;;;;;;1.84;100.00;99146.78;5073679;28;20048;-72
2021/12/10 08:58:12;;;;;;;39.80;19.50;;;;;;;1.86;100.00;99146.69;5073361;28;20044;-72
2021/12/10 09:00:47;;;;;;;43.22;21.13;;;;;;;1.93;100.00;99148.13;5072609;28;20076;-71
2021/12/10 09:03:17;;;;;;;39.47;19.98;;;;;;;1.96;100.00;99146.25;5073156;28;20040;-72
2021/12/10 09:05:45;;;;;;;38.63;20.30;;;;;;;1.90;100.00;99153.53;5073410;28;20471;-71
2021/12/10 09:08:14;;;;;;;35.55;18.67;;;;;;;1.77;100.00;99150.56;5072778;28;20052;-71
2021/12/10 09:10:45;;;;;;;42.25;20.55;;;;;;;1.70;100.00;99144.69;5073417;28;20037;-71
2021/12/10 09:13:15;;;;;;;41.70;21.50;;;;;;;1.62;100.00;99141.53;5073365;28;20413;-72
2021/12/10 09:15:48;;;;;;;43.88;22.05;;;;;;;1.81;100.00;99151.28;5073218;28;20379;-71
2021/12/10 09:18:17;;;;;;;37.95;18.40;;;;;;;1.95;100.00;99154.19;5072761;28;20444;-69
2021/12/10 09:20:49;;;;;;;38.22;19.30;;;;;;;2.03;100.00;99156.47;5072677;28;20131;-71
2021/12/10 09:23:22;;;;;;;37.78;18.70;;;;;;;1.99;100.00;99161.03;5072704;28;20068;-71
2021/12/10 09:25:57;;;;;;;39.67;20.30;;;;;;;2.07;100.00;99155.44;5072962;28;20107;-75
2021/12/10 09:28:26;;;;;;;35.78;19.50;;;;;;;2.18;100.00;99155.84;5073490;28;20102;-71
2021/12/10 09:31:00;;;;;;;37.63;19.40;;;;;;;2.23;100.00;99151.25;5073074;28;20037;-72
2021/12/10 09:33:29;;;;;;;40.25;21.08;;;;;;;2.24;100.00;99145.91;5073306;28;20079;-71
2021/12/10 09:35:58;;;;;;;38.80;19.83;;;;;;;2.46;100.00;99139.69;5072845;28;20056;-71
2021/12/10 09:38:27;;;;;;;36.40;18.85;;;;;;;2.44;100.00;99141.53;5072695;28;20056;-71
2021/12/10 09:40:59;;;;;;;38.35;19.50;;;;;;;2.43;100.00;99151.22;5072923;28;20389;-72
2021/12/10 09:43:27;;;;;;;41.83;21.02;;;;;;;2.45;100.00;99157.25;5072882;28;20477;-71
2021/12/10 09:45:57;;;;;;;48.75;23.60;;;;;;;2.49;100.00;99150.91;5072795;28;20041;-75
2021/12/10 09:48:27;;;;;;;43.63;22.60;;;;;;;2.45;100.00;99159.03;5073137;28;20091;-71
2021/12/10 09:50:59;;;;;;;42.10;21.15;;;;;;;2.49;100.00;99160.59;5072801;28;20044;-75
2021/12/10 09:53:30;;;;;;;43.85;21.70;;;;;;;2.41;100.00;99162.72;5073106;28;20436;-71
2021/12/10 09:56:00;;;;;;;42.42;22.92;;;;;;;2.31;100.00;99172.78;5072564;28;20041;-71
2021/12/10 09:58:29;;;;;;;43.97;22.50;;;;;;;2.24;100.00;99166.97;5072992;28;20440;-71
2021/12/10 10:01:01;;;;;;;40.50;21.15;;;;;;;2.27;100.00;99166.81;5072749;28;20074;-72
2021/12/10 10:03:36;;;;;;;45.28;21.98;;;;;;;2.27;100.00;99161.56;5073064;28;20107;-71
2021/12/10 10:06:07;;;;;;;36.05;19.77;;;;;;;2.37;100.00;99169.91;5072832;28;20045;-71
2021/12/10 10:08:37;;;;;;;37.58;19.58;;;;;;;2.24;100.00;99171.38;5073032;28;20102;-71
2021/12/10 10:11:12;;;;;;;33.07;17.13;;;;;;;2.24;100.00;99172.22;5072765;28;20071;-71
2021/12/10 10:13:46;;;;;;;32.17;16.27;;;;;;;2.42;100.00;99167.09;5072911;28;20460;-71
2021/12/10 10:16:17;;;;;;;30.63;16.30;;;;;;;2.41;100.00;99157.44;5072568;28;20127;-71
2021/12/10 10:18:46;;;;;;;28.08;15.15;;;;;;;2.32;100.00;99157.84;5072640;28;20044;-71
2021/12/10 10:21:17;;;;;;;30.02;16.08;;;;;;;2.36;100.00;99159.44;5071432;28;20048;-71
2021/12/10 10:23:46;;;;;;;28.23;15.60;;;;;;;2.50;100.00;99151.78;5072861;28;20048;-71
2021/12/10 10:26:17;;;;;;;28.23;15.55;;;;;;;2.43;100.00;99158.25;5072206;28;20098;-71
2021/12/10 10:28:47;;;;;;;29.30;15.90;;;;;;;2.33;100.00;99151.69;5072806;28;20098;-72
2021/12/10 10:31:23;;;;;;;27.90;15.93;;;;;;;2.27;100.00;99158.06;5072160;28;20083;-71
2021/12/10 10:33:56;;;;;;;28.23;15.43;;;;;;;2.22;100.00;99158.28;5075444;28;20040;-71
2021/12/10 10:36:30;;;;;;;27.55;15.25;;;;;;;2.27;100.00;99137.88;5076371;28;20102;-71
2021/12/10 10:39:02;;;;;;;31.58;16.40;;;;;;;2.19;100.00;99139.13;5076295;28;20048;-71
2021/12/10 10:41:33;;;;;;;30.42;16.77;;;;;;;2.17;100.00;99138.34;5076279;28;20416;-71
2021/12/10 10:44:04;;;;;;;38.67;20.15;;;;;;;2.13;100.00;99124.47;5076000;28;20054;-71
2021/12/10 10:46:36;;;;;;;41.88;21.80;;;;;;;2.18;100.00;99119.84;5076349;28;20041;-71
2021/12/10 10:49:05;;;;;;;40.45;21.35;;;;;;;2.01;100.00;99111.84;5075863;28;20461;-71
2021/12/10 10:51:36;;;;;;;44.70;23.73;;;;;;;2.05;100.00;99112.59;5076059;28;20048;-71
2021/12/10 10:54:07;;;;;;;42.95;22.48;;;;;;;2.01;100.00;99101.31;5075927;28;20048;-71
2021/12/10 10:56:38;;;;;;;46.88;23.52;;;;;;;1.99;100.00;99092.66;5076270;28;20044;-71
2021/12/10 10:59:13;;;;;;;49.42;24.10;;;;;;;1.99;100.00;99095.28;5075722;28;20041;-71
2021/12/10 11:01:53;;;;;;;43.08;22.35;;;;;;;2.04;100.00;99079.31;5076142;28;20050;-71
2021/12/10 11:04:35;;;;;;;46.50;23.10;;;;;;;2.00;100.00;99073.31;5076032;28;20497;-71
2021/12/10 11:07:09;;;;;;;47.38;23.33;;;;;;;2.02;100.00;99079.34;5075574;28;20045;-72
2021/12/10 11:09:46;;;;;;;46.30;24.30;;;;;;;2.02;100.00;99076.72;5075946;28;20136;-71
2021/12/10 11:12:20;;;;;;;43.92;22.88;;;;;;;2.02;100.00;99071.47;5075538;28;20043;-71
2021/12/10 11:14:52;;;;;;;43.78;23.08;;;;;;;1.99;100.00;99071.59;5075858;28;20094;-72
2021/12/10 11:17:28;;;;;;;48.75;23.70;;;;;;;2.04;100.00;99074.91;5075444;28;20401;-72
2021/12/10 11:19:59;;;;;;;44.60;23.15;;;;;;;2.12;100.00;99077.16;5075195;28;20052;-71
2021/12/10 11:22:29;;;;;;;45.58;23.38;;;;;;;2.06;100.00;99083.56;5075576;28;20452;-71
2021/12/10 11:25:00;;;;;;;41.83;23.38;;;;;;;2.04;100.00;99074.91;5075483;28;20040;-71
2021/12/10 11:27:34;;;;;;;45.83;23.63;;;;;;;2.03;100.00;99069.69;5075544;28;20433;-71
2021/12/10 11:30:12;;;;;;;43.40;23.02;;;;;;;2.07;100.00;99064.22;5075074;28;20094;-76
2021/12/10 11:32:44;;;;;;;44.45;23.17;;;;;;;2.08;100.00;99071.19;5075428;28;20040;-71
2021/12/10 11:35:18;;;;;;;44.58;21.98;;;;;;;2.12;100.00;99072.75;5075244;28;20043;-72
2021/12/10 11:37:58;;;;;;;42.53;23.08;;;;;;;2.16;100.00;99081.38;5075477;28;20094;-70
2021/12/10 11:40:36;;;;;;;45.88;23.90;;;;;;;2.16;100.00;99074.34;5074580;28;20045;-70
2021/12/10 11:43:17;;;;;;;51.53;24.30;;;;;;;2.14;100.00;99081.47;5074852;28;20072;-74